sensor_id;sensor_type;location;lat;lon;timestamp;P1;durP1;ratioP1;P2;durP2;ratioP2
50350;SDS011;36250;48.740;22.174;2023-04-26T00:01:03;10.15;;;5.18;;
50350;SDS011;36250;48.740;22.174;2023-04-26T00:03:29;7.53;;;6.18;;
50350;SDS011;36250;48.740;22.174;2023-04-26T00:05:55;7.28;;;5.30;;
50350;SDS011;36250;48.740;22.174;2023-04-26T00:08:20;7.30;;;5.15;;
50350;SDS011;36250;48.740;22.174;2023-04-26T00:10:45;5.90;;;5.30;;
50350;SDS011;36250;48.740;22.174;2023-04-26T00:13:11;5.68;;;5.07;;
50350;SDS011;36250;48.740;22.174;2023-04-26T00:15:36;7.15;;;5.75;;
50350;SDS011;36250;48.740;22.174;2023-04-26T00:18:01;6.22;;;5.63;;
50350;SDS011;36250;48.740;22.174;2023-04-26T00:20:27;7.00;;;5.70;;
50350;SDS011;36250;48.740;22.174;2023-04-26T00:22:53;5.03;;;4.50;;
50350;SDS011;36250;48.740;22.174;2023-04-26T00:25:18;8.48;;;5.88;;
50350;SDS011;36250;48.740;22.174;2023-04-26T00:27:43;6.03;;;4.80;;
50350;SDS011;36250;48.740;22.174;2023-04-26T00:30:09;5.40;;;4.90;;
50350;SDS011;36250;48.740;22.174;2023-04-26T00:32:35;8.02;;;5.80;;
50350;SDS011;36250;48.740;22.174;2023-04-26T00:35:02;7.15;;;5.47;;
50350;SDS011;36250;48.740;22.174;2023-04-26T00:37:28;6.95;;;4.97;;
50350;SDS011;36250;48.740;22.174;2023-04-26T00:39:53;5.15;;;4.65;;
50350;SDS011;36250;48.740;22.174;2023-04-26T00:42:21;6.10;;;5.50;;
50350;SDS011;36250;48.740;22.174;2023-04-26T00:44:46;7.65;;;4.97;;
50350;SDS011;36250;48.740;22.174;2023-04-26T00:47:13;6.30;;;5.53;;
50350;SDS011;36250;48.740;22.174;2023-04-26T00:49:39;9.05;;;5.38;;
50350;SDS011;36250;48.740;22.174;2023-04-26T00:52:05;10.75;;;5.75;;
50350;SDS011;36250;48.740;22.174;2023-04-26T00:54:30;8.88;;;6.50;;
50350;SDS011;36250;48.740;22.174;2023-04-26T00:56:56;6.40;;;5.68;;
50350;SDS011;36250;48.740;22.174;2023-04-26T00:59:21;6.90;;;5.82;;
50350;SDS011;36250;48.740;22.174;2023-04-26T01:01:47;6.60;;;5.75;;
50350;SDS011;36250;48.740;22.174;2023-04-26T01:04:13;6.25;;;5.57;;
50350;SDS011;36250;48.740;22.174;2023-04-26T01:06:39;7.95;;;7.07;;
50350;SDS011;36250;48.740;22.174;2023-04-26T01:09:05;6.78;;;6.05;;
50350;SDS011;36250;48.740;22.174;2023-04-26T01:11:36;8.15;;;6.25;;
50350;SDS011;36250;48.740;22.174;2023-04-26T01:14:05;10.55;;;6.38;;
50350;SDS011;36250;48.740;22.174;2023-04-26T01:16:32;8.98;;;6.30;;
50350;SDS011;36250;48.740;22.174;2023-04-26T01:19:00;9.55;;;6.18;;
50350;SDS011;36250;48.740;22.174;2023-04-26T01:21:37;7.50;;;6.00;;
50350;SDS011;36250;48.740;22.174;2023-04-26T01:24:03;7.65;;;6.50;;
50350;SDS011;36250;48.740;22.174;2023-04-26T01:26:30;7.35;;;6.63;;
50350;SDS011;36250;48.740;22.174;2023-04-26T01:28:56;8.93;;;6.20;;
50350;SDS011;36250;48.740;22.174;2023-04-26T01:31:22;7.68;;;6.20;;
50350;SDS011;36250;48.740;22.174;2023-04-26T01:33:47;7.47;;;6.20;;
50350;SDS011;36250;48.740;22.174;2023-04-26T01:36:13;9.27;;;6.07;;
50350;SDS011;36250;48.740;22.174;2023-04-26T01:38:38;8.23;;;6.28;;
50350;SDS011;36250;48.740;22.174;2023-04-26T01:41:03;10.43;;;6.35;;
50350;SDS011;36250;48.740;22.174;2023-04-26T01:43:29;8.20;;;6.97;;
50350;SDS011;36250;48.740;22.174;2023-04-26T01:45:54;9.85;;;7.15;;
50350;SDS011;36250;48.740;22.174;2023-04-26T01:48:19;9.13;;;7.90;;
50350;SDS011;36250;48.740;22.174;2023-04-26T01:50:45;8.23;;;7.35;;
50350;SDS011;36250;48.740;22.174;2023-04-26T01:53:10;9.43;;;8.02;;
50350;SDS011;36250;48.740;22.174;2023-04-26T01:55:36;10.10;;;7.78;;
50350;SDS011;36250;48.740;22.174;2023-04-26T01:58:01;8.85;;;7.65;;
50350;SDS011;36250;48.740;22.174;2023-04-26T02:00:27;10.70;;;8.40;;
50350;SDS011;36250;48.740;22.174;2023-04-26T02:02:53;15.32;;;9.13;;
50350;SDS011;36250;48.740;22.174;2023-04-26T02:05:19;9.82;;;7.93;;
50350;SDS011;36250;48.740;22.174;2023-04-26T02:07:45;8.82;;;7.82;;
50350;SDS011;36250;48.740;22.174;2023-04-26T02:10:11;9.30;;;8.18;;
50350;SDS011;36250;48.740;22.174;2023-04-26T02:12:36;11.48;;;8.55;;
50350;SDS011;36250;48.740;22.174;2023-04-26T02:15:01;11.10;;;8.10;;
50350;SDS011;36250;48.740;22.174;2023-04-26T02:17:27;11.20;;;7.80;;
50350;SDS011;36250;48.740;22.174;2023-04-26T02:19:53;10.02;;;7.65;;
50350;SDS011;36250;48.740;22.174;2023-04-26T02:22:19;9.27;;;7.07;;
50350;SDS011;36250;48.740;22.174;2023-04-26T02:24:48;11.88;;;8.00;;
50350;SDS011;36250;48.740;22.174;2023-04-26T02:27:13;12.52;;;8.70;;
50350;SDS011;36250;48.740;22.174;2023-04-26T02:29:39;11.38;;;8.05;;
50350;SDS011;36250;48.740;22.174;2023-04-26T02:32:04;10.85;;;8.25;;
50350;SDS011;36250;48.740;22.174;2023-04-26T02:34:29;12.20;;;8.50;;
50350;SDS011;36250;48.740;22.174;2023-04-26T02:36:55;10.60;;;8.70;;
50350;SDS011;36250;48.740;22.174;2023-04-26T02:39:20;11.38;;;8.93;;
50350;SDS011;36250;48.740;22.174;2023-04-26T02:41:46;11.88;;;9.23;;
50350;SDS011;36250;48.740;22.174;2023-04-26T02:44:11;11.25;;;8.57;;
50350;SDS011;36250;48.740;22.174;2023-04-26T02:46:36;13.27;;;9.43;;
50350;SDS011;36250;48.740;22.174;2023-04-26T02:49:02;15.02;;;9.27;;
50350;SDS011;36250;48.740;22.174;2023-04-26T02:51:27;11.13;;;9.10;;
50350;SDS011;36250;48.740;22.174;2023-04-26T02:53:52;11.90;;;9.55;;
50350;SDS011;36250;48.740;22.174;2023-04-26T02:56:18;13.60;;;8.23;;
50350;SDS011;36250;48.740;22.174;2023-04-26T02:58:43;10.45;;;9.35;;
50350;SDS011;36250;48.740;22.174;2023-04-26T03:01:09;11.70;;;9.20;;
50350;SDS011;36250;48.740;22.174;2023-04-26T03:03:34;14.15;;;9.90;;
50350;SDS011;36250;48.740;22.174;2023-04-26T03:06:01;11.57;;;9.57;;
50350;SDS011;36250;48.740;22.174;2023-04-26T03:08:26;13.00;;;9.00;;
50350;SDS011;36250;48.740;22.174;2023-04-26T03:10:51;12.32;;;9.68;;
50350;SDS011;36250;48.740;22.174;2023-04-26T03:13:17;12.20;;;10.13;;
50350;SDS011;36250;48.740;22.174;2023-04-26T03:15:43;12.73;;;10.20;;
50350;SDS011;36250;48.740;22.174;2023-04-26T03:18:11;15.82;;;10.32;;
50350;SDS011;36250;48.740;22.174;2023-04-26T03:20:36;16.30;;;10.27;;
50350;SDS011;36250;48.740;22.174;2023-04-26T03:23:01;12.93;;;10.38;;
50350;SDS011;36250;48.740;22.174;2023-04-26T03:25:27;14.60;;;9.70;;
50350;SDS011;36250;48.740;22.174;2023-04-26T03:27:53;12.25;;;9.25;;
50350;SDS011;36250;48.740;22.174;2023-04-26T03:30:19;11.50;;;9.55;;
50350;SDS011;36250;48.740;22.174;2023-04-26T03:32:44;13.27;;;9.75;;
50350;SDS011;36250;48.740;22.174;2023-04-26T03:35:10;11.57;;;9.35;;
50350;SDS011;36250;48.740;22.174;2023-04-26T03:37:35;10.93;;;9.05;;
50350;SDS011;36250;48.740;22.174;2023-04-26T03:40:03;10.43;;;8.82;;
50350;SDS011;36250;48.740;22.174;2023-04-26T03:42:32;11.38;;;9.32;;
50350;SDS011;36250;48.740;22.174;2023-04-26T03:44:57;11.00;;;8.77;;
50350;SDS011;36250;48.740;22.174;2023-04-26T03:47:23;11.43;;;8.07;;
50350;SDS011;36250;48.740;22.174;2023-04-26T03:49:48;13.18;;;9.50;;
50350;SDS011;36250;48.740;22.174;2023-04-26T03:52:13;10.38;;;7.68;;
50350;SDS011;36250;48.740;22.174;2023-04-26T03:54:39;11.85;;;8.10;;
50350;SDS011;36250;48.740;22.174;2023-04-26T03:57:04;11.82;;;8.80;;
50350;SDS011;36250;48.740;22.174;2023-04-26T03:59:30;11.85;;;8.05;;
50350;SDS011;36250;48.740;22.174;2023-04-26T04:01:55;10.80;;;8.50;;
50350;SDS011;36250;48.740;22.174;2023-04-26T04:04:20;10.63;;;8.02;;
50350;SDS011;36250;48.740;22.174;2023-04-26T04:06:46;10.57;;;7.68;;
50350;SDS011;36250;48.740;22.174;2023-04-26T04:09:11;13.27;;;7.57;;
50350;SDS011;36250;48.740;22.174;2023-04-26T04:11:36;15.77;;;6.72;;
50350;SDS011;36250;48.740;22.174;2023-04-26T04:14:02;11.20;;;7.32;;
50350;SDS011;36250;48.740;22.174;2023-04-26T04:16:27;11.40;;;7.10;;
50350;SDS011;36250;48.740;22.174;2023-04-26T04:18:53;11.95;;;6.70;;
50350;SDS011;36250;48.740;22.174;2023-04-26T04:21:18;11.80;;;6.35;;
50350;SDS011;36250;48.740;22.174;2023-04-26T04:23:43;14.27;;;6.63;;
50350;SDS011;36250;48.740;22.174;2023-04-26T04:26:09;12.82;;;6.40;;
50350;SDS011;36250;48.740;22.174;2023-04-26T04:28:36;12.82;;;6.63;;
50350;SDS011;36250;48.740;22.174;2023-04-26T04:31:03;8.88;;;5.68;;
50350;SDS011;36250;48.740;22.174;2023-04-26T04:33:28;12.95;;;5.85;;
50350;SDS011;36250;48.740;22.174;2023-04-26T04:35:54;10.77;;;6.30;;
50350;SDS011;36250;48.740;22.174;2023-04-26T04:38:19;10.70;;;5.82;;
50350;SDS011;36250;48.740;22.174;2023-04-26T04:40:47;12.98;;;7.88;;
50350;SDS011;36250;48.740;22.174;2023-04-26T04:43:16;14.80;;;6.20;;
50350;SDS011;36250;48.740;22.174;2023-04-26T04:45:41;13.50;;;5.53;;
50350;SDS011;36250;48.740;22.174;2023-04-26T04:48:07;7.30;;;5.28;;
50350;SDS011;36250;48.740;22.174;2023-04-26T04:50:33;10.50;;;4.55;;
50350;SDS011;36250;48.740;22.174;2023-04-26T04:52:59;12.82;;;5.13;;
50350;SDS011;36250;48.740;22.174;2023-04-26T04:55:25;8.80;;;4.40;;
50350;SDS011;36250;48.740;22.174;2023-04-26T04:57:51;12.02;;;4.13;;
50350;SDS011;36250;48.740;22.174;2023-04-26T05:00:16;7.38;;;4.35;;
50350;SDS011;36250;48.740;22.174;2023-04-26T05:02:42;13.00;;;4.80;;
50350;SDS011;36250;48.740;22.174;2023-04-26T05:05:07;11.10;;;5.28;;
50350;SDS011;36250;48.740;22.174;2023-04-26T05:07:34;11.65;;;4.15;;
50350;SDS011;36250;48.740;22.174;2023-04-26T05:10:00;10.57;;;3.85;;
50350;SDS011;36250;48.740;22.174;2023-04-26T05:12:26;8.73;;;4.70;;
50350;SDS011;36250;48.740;22.174;2023-04-26T05:14:51;11.73;;;4.25;;
50350;SDS011;36250;48.740;22.174;2023-04-26T05:17:16;10.63;;;3.50;;
50350;SDS011;36250;48.740;22.174;2023-04-26T05:19:42;8.52;;;3.85;;
50350;SDS011;36250;48.740;22.174;2023-04-26T05:22:07;8.90;;;3.30;;
50350;SDS011;36250;48.740;22.174;2023-04-26T05:24:32;7.50;;;3.80;;
50350;SDS011;36250;48.740;22.174;2023-04-26T05:26:58;11.07;;;3.67;;
50350;SDS011;36250;48.740;22.174;2023-04-26T05:29:27;11.52;;;3.53;;
50350;SDS011;36250;48.740;22.174;2023-04-26T05:31:53;9.20;;;3.72;;
50350;SDS011;36250;48.740;22.174;2023-04-26T05:34:19;10.73;;;3.85;;
50350;SDS011;36250;48.740;22.174;2023-04-26T05:36:44;17.67;;;4.65;;
50350;SDS011;36250;48.740;22.174;2023-04-26T05:39:10;13.50;;;4.43;;
50350;SDS011;36250;48.740;22.174;2023-04-26T05:41:36;9.32;;;4.03;;
50350;SDS011;36250;48.740;22.174;2023-04-26T05:44:01;12.07;;;4.60;;
50350;SDS011;36250;48.740;22.174;2023-04-26T05:46:27;9.38;;;5.70;;
50350;SDS011;36250;48.740;22.174;2023-04-26T05:48:52;13.15;;;5.50;;
50350;SDS011;36250;48.740;22.174;2023-04-26T05:51:18;12.02;;;5.20;;
50350;SDS011;36250;48.740;22.174;2023-04-26T05:53:43;11.23;;;4.80;;
50350;SDS011;36250;48.740;22.174;2023-04-26T05:56:08;10.20;;;5.25;;
50350;SDS011;36250;48.740;22.174;2023-04-26T05:58:33;17.05;;;6.78;;
50350;SDS011;36250;48.740;22.174;2023-04-26T06:00:59;13.82;;;5.65;;
50350;SDS011;36250;48.740;22.174;2023-04-26T06:03:24;8.88;;;4.65;;
50350;SDS011;36250;48.740;22.174;2023-04-26T06:05:50;11.80;;;5.63;;
50350;SDS011;36250;48.740;22.174;2023-04-26T06:08:16;8.45;;;4.90;;
50350;SDS011;36250;48.740;22.174;2023-04-26T06:10:41;11.73;;;5.55;;
50350;SDS011;36250;48.740;22.174;2023-04-26T06:13:06;13.60;;;5.47;;
50350;SDS011;36250;48.740;22.174;2023-04-26T06:15:32;10.10;;;5.65;;
50350;SDS011;36250;48.740;22.174;2023-04-26T06:17:58;16.73;;;4.85;;
50350;SDS011;36250;48.740;22.174;2023-04-26T06:20:23;13.98;;;5.68;;
50350;SDS011;36250;48.740;22.174;2023-04-26T06:22:48;12.48;;;4.38;;
50350;SDS011;36250;48.740;22.174;2023-04-26T06:25:14;11.75;;;5.40;;
50350;SDS011;36250;48.740;22.174;2023-04-26T06:27:40;10.82;;;5.00;;
50350;SDS011;36250;48.740;22.174;2023-04-26T06:30:06;11.38;;;5.38;;
50350;SDS011;36250;48.740;22.174;2023-04-26T06:32:32;13.52;;;4.47;;
50350;SDS011;36250;48.740;22.174;2023-04-26T06:34:57;9.20;;;4.32;;
50350;SDS011;36250;48.740;22.174;2023-04-26T06:37:22;10.38;;;4.95;;
50350;SDS011;36250;48.740;22.174;2023-04-26T06:39:48;11.25;;;4.03;;
50350;SDS011;36250;48.740;22.174;2023-04-26T06:42:13;10.98;;;5.45;;
50350;SDS011;36250;48.740;22.174;2023-04-26T06:44:38;13.75;;;4.20;;
50350;SDS011;36250;48.740;22.174;2023-04-26T06:47:04;8.30;;;3.90;;
50350;SDS011;36250;48.740;22.174;2023-04-26T06:49:33;12.15;;;3.88;;
50350;SDS011;36250;48.740;22.174;2023-04-26T06:51:59;12.50;;;4.22;;
50350;SDS011;36250;48.740;22.174;2023-04-26T06:54:28;10.68;;;3.67;;
50350;SDS011;36250;48.740;22.174;2023-04-26T06:56:54;13.43;;;4.13;;
50350;SDS011;36250;48.740;22.174;2023-04-26T06:59:19;8.00;;;3.50;;
50350;SDS011;36250;48.740;22.174;2023-04-26T07:01:44;13.25;;;4.57;;
50350;SDS011;36250;48.740;22.174;2023-04-26T07:04:10;7.22;;;3.97;;
50350;SDS011;36250;48.740;22.174;2023-04-26T07:06:36;9.05;;;3.40;;
50350;SDS011;36250;48.740;22.174;2023-04-26T07:09:03;10.07;;;4.00;;
50350;SDS011;36250;48.740;22.174;2023-04-26T07:11:28;10.05;;;3.05;;
50350;SDS011;36250;48.740;22.174;2023-04-26T07:13:54;14.40;;;3.55;;
50350;SDS011;36250;48.740;22.174;2023-04-26T07:16:20;9.98;;;2.97;;
50350;SDS011;36250;48.740;22.174;2023-04-26T07:18:45;11.35;;;4.00;;
50350;SDS011;36250;48.740;22.174;2023-04-26T07:21:12;15.38;;;3.20;;
50350;SDS011;36250;48.740;22.174;2023-04-26T07:23:38;8.75;;;3.15;;
50350;SDS011;36250;48.740;22.174;2023-04-26T07:26:03;7.78;;;2.80;;
50350;SDS011;36250;48.740;22.174;2023-04-26T07:28:29;8.00;;;3.35;;
50350;SDS011;36250;48.740;22.174;2023-04-26T07:30:55;11.68;;;3.08;;
50350;SDS011;36250;48.740;22.174;2023-04-26T07:33:21;7.60;;;2.90;;
50350;SDS011;36250;48.740;22.174;2023-04-26T07:35:53;9.05;;;2.60;;
50350;SDS011;36250;48.740;22.174;2023-04-26T07:38:22;8.20;;;2.78;;
50350;SDS011;36250;48.740;22.174;2023-04-26T07:40:48;10.63;;;2.45;;
50350;SDS011;36250;48.740;22.174;2023-04-26T07:43:14;7.80;;;2.03;;
50350;SDS011;36250;48.740;22.174;2023-04-26T07:45:40;11.77;;;2.30;;
50350;SDS011;36250;48.740;22.174;2023-04-26T07:48:06;9.15;;;2.22;;
50350;SDS011;36250;48.740;22.174;2023-04-26T07:50:31;9.55;;;2.20;;
50350;SDS011;36250;48.740;22.174;2023-04-26T07:52:57;8.57;;;1.92;;
50350;SDS011;36250;48.740;22.174;2023-04-26T07:55:22;7.72;;;2.42;;
50350;SDS011;36250;48.740;22.174;2023-04-26T07:57:48;4.20;;;1.58;;
50350;SDS011;36250;48.740;22.174;2023-04-26T08:00:13;6.55;;;1.80;;
50350;SDS011;36250;48.740;22.174;2023-04-26T08:02:40;4.47;;;1.60;;
50350;SDS011;36250;48.740;22.174;2023-04-26T08:05:06;8.30;;;1.88;;
50350;SDS011;36250;48.740;22.174;2023-04-26T08:07:32;5.85;;;1.83;;
50350;SDS011;36250;48.740;22.174;2023-04-26T08:09:58;12.43;;;1.88;;
50350;SDS011;36250;48.740;22.174;2023-04-26T08:12:23;8.18;;;1.88;;
50350;SDS011;36250;48.740;22.174;2023-04-26T08:14:49;6.35;;;2.72;;
50350;SDS011;36250;48.740;22.174;2023-04-26T08:17:14;6.35;;;1.92;;
50350;SDS011;36250;48.740;22.174;2023-04-26T08:19:40;11.45;;;2.00;;
50350;SDS011;36250;48.740;22.174;2023-04-26T08:22:05;3.28;;;1.95;;
50350;SDS011;36250;48.740;22.174;2023-04-26T08:24:31;6.32;;;2.50;;
50350;SDS011;36250;48.740;22.174;2023-04-26T08:26:56;12.75;;;2.45;;
50350;SDS011;36250;48.740;22.174;2023-04-26T08:29:23;6.05;;;2.58;;
50350;SDS011;36250;48.740;22.174;2023-04-26T08:31:50;8.32;;;1.88;;
50350;SDS011;36250;48.740;22.174;2023-04-26T08:34:16;6.00;;;1.70;;
50350;SDS011;36250;48.740;22.174;2023-04-26T08:36:41;7.22;;;2.10;;
50350;SDS011;36250;48.740;22.174;2023-04-26T08:39:07;5.13;;;1.95;;
50350;SDS011;36250;48.740;22.174;2023-04-26T08:41:37;5.05;;;1.80;;
50350;SDS011;36250;48.740;22.174;2023-04-26T08:44:07;9.80;;;2.35;;
50350;SDS011;36250;48.740;22.174;2023-04-26T08:46:34;3.72;;;1.65;;
50350;SDS011;36250;48.740;22.174;2023-04-26T08:49:05;10.90;;;2.25;;
50350;SDS011;36250;48.740;22.174;2023-04-26T08:52:10;6.53;;;3.45;;
50350;SDS011;36250;48.740;22.174;2023-04-26T08:54:37;8.27;;;2.42;;
50350;SDS011;36250;48.740;22.174;2023-04-26T08:57:03;6.45;;;1.48;;
50350;SDS011;36250;48.740;22.174;2023-04-26T08:59:32;6.35;;;1.85;;
50350;SDS011;36250;48.740;22.174;2023-04-26T09:02:01;10.00;;;2.55;;
50350;SDS011;36250;48.740;22.174;2023-04-26T09:04:29;8.23;;;1.80;;
50350;SDS011;36250;48.740;22.174;2023-04-26T09:06:59;7.68;;;1.80;;
50350;SDS011;36250;48.740;22.174;2023-04-26T09:09:26;5.78;;;1.80;;
50350;SDS011;36250;48.740;22.174;2023-04-26T09:11:53;5.00;;;1.77;;
50350;SDS011;36250;48.740;22.174;2023-04-26T09:14:19;16.95;;;2.88;;
50350;SDS011;36250;48.740;22.174;2023-04-26T09:16:44;6.97;;;2.13;;
50350;SDS011;36250;48.740;22.174;2023-04-26T09:19:09;7.85;;;1.75;;
50350;SDS011;36250;48.740;22.174;2023-04-26T09:21:44;30.60;;;4.10;;
50350;SDS011;36250;48.740;22.174;2023-04-26T09:24:11;13.25;;;2.35;;
50350;SDS011;36250;48.740;22.174;2023-04-26T09:26:36;5.15;;;1.85;;
50350;SDS011;36250;48.740;22.174;2023-04-26T09:29:13;6.60;;;2.05;;
50350;SDS011;36250;48.740;22.174;2023-04-26T09:31:39;5.55;;;1.60;;
50350;SDS011;36250;48.740;22.174;2023-04-26T09:34:10;4.07;;;1.83;;
50350;SDS011;36250;48.740;22.174;2023-04-26T09:36:50;5.85;;;1.60;;
50350;SDS011;36250;48.740;22.174;2023-04-26T09:39:29;4.13;;;1.60;;
50350;SDS011;36250;48.740;22.174;2023-04-26T09:41:56;3.70;;;1.40;;
50350;SDS011;36250;48.740;22.174;2023-04-26T09:44:22;6.32;;;1.60;;
50350;SDS011;36250;48.740;22.174;2023-04-26T09:47:04;5.68;;;1.60;;
50350;SDS011;36250;48.740;22.174;2023-04-26T09:49:49;9.55;;;3.55;;
50350;SDS011;36250;48.740;22.174;2023-04-26T09:52:16;7.00;;;1.63;;
50350;SDS011;36250;48.740;22.174;2023-04-26T09:57:13;7.88;;;1.92;;
50350;SDS011;36250;48.740;22.174;2023-04-26T09:59:44;7.07;;;1.90;;
50350;SDS011;36250;48.740;22.174;2023-04-26T10:02:15;4.75;;;1.60;;
50350;SDS011;36250;48.740;22.174;2023-04-26T10:04:46;11.00;;;2.10;;
50350;SDS011;36250;48.740;22.174;2023-04-26T10:07:13;7.75;;;1.77;;
50350;SDS011;36250;48.740;22.174;2023-04-26T10:09:40;8.30;;;1.98;;
50350;SDS011;36250;48.740;22.174;2023-04-26T10:12:06;4.80;;;1.80;;
50350;SDS011;36250;48.740;22.174;2023-04-26T10:14:33;10.88;;;1.63;;
50350;SDS011;36250;48.740;22.174;2023-04-26T10:16:58;4.40;;;1.45;;
50350;SDS011;36250;48.740;22.174;2023-04-26T10:19:25;6.65;;;1.77;;
50350;SDS011;36250;48.740;22.174;2023-04-26T10:21:51;3.67;;;1.63;;
50350;SDS011;36250;48.740;22.174;2023-04-26T10:24:19;3.67;;;2.13;;
50350;SDS011;36250;48.740;22.174;2023-04-26T10:26:48;5.65;;;1.63;;
50350;SDS011;36250;48.740;22.174;2023-04-26T10:29:15;5.38;;;1.33;;
50350;SDS011;36250;48.740;22.174;2023-04-26T10:34:33;7.22;;;1.42;;
50350;SDS011;36250;48.740;22.174;2023-04-26T10:37:10;6.22;;;1.30;;
50350;SDS011;36250;48.740;22.174;2023-04-26T10:39:43;5.65;;;2.13;;
50350;SDS011;36250;48.740;22.174;2023-04-26T10:42:30;5.07;;;2.13;;
50350;SDS011;36250;48.740;22.174;2023-04-26T10:47:24;5.63;;;1.40;;
50350;SDS011;36250;48.740;22.174;2023-04-26T10:52:33;8.50;;;2.08;;
50350;SDS011;36250;48.740;22.174;2023-04-26T10:54:59;4.70;;;1.40;;
50350;SDS011;36250;48.740;22.174;2023-04-26T10:57:45;4.35;;;1.30;;
50350;SDS011;36250;48.740;22.174;2023-04-26T11:00:25;6.68;;;1.70;;
50350;SDS011;36250;48.740;22.174;2023-04-26T11:02:55;3.78;;;1.60;;
50350;SDS011;36250;48.740;22.174;2023-04-26T11:08:19;2.55;;;1.30;;
50350;SDS011;36250;48.740;22.174;2023-04-26T11:10:49;3.67;;;1.38;;
50350;SDS011;36250;48.740;22.174;2023-04-26T11:13:17;7.20;;;1.60;;
50350;SDS011;36250;48.740;22.174;2023-04-26T11:15:43;4.57;;;1.48;;
50350;SDS011;36250;48.740;22.174;2023-04-26T11:18:10;3.17;;;1.38;;
50350;SDS011;36250;48.740;22.174;2023-04-26T11:20:35;3.13;;;1.60;;
50350;SDS011;36250;48.740;22.174;2023-04-26T11:23:01;3.60;;;1.20;;
50350;SDS011;36250;48.740;22.174;2023-04-26T11:25:27;5.80;;;1.48;;
50350;SDS011;36250;48.740;22.174;2023-04-26T11:27:59;5.03;;;1.30;;
50350;SDS011;36250;48.740;22.174;2023-04-26T11:30:26;4.47;;;1.35;;
50350;SDS011;36250;48.740;22.174;2023-04-26T11:32:59;4.10;;;1.25;;
50350;SDS011;36250;48.740;22.174;2023-04-26T11:35:25;4.60;;;1.50;;
50350;SDS011;36250;48.740;22.174;2023-04-26T11:37:53;2.88;;;1.13;;
50350;SDS011;36250;48.740;22.174;2023-04-26T11:40:22;2.80;;;1.00;;
50350;SDS011;36250;48.740;22.174;2023-04-26T11:42:49;7.97;;;1.83;;
50350;SDS011;36250;48.740;22.174;2023-04-26T11:45:14;3.88;;;1.25;;
50350;SDS011;36250;48.740;22.174;2023-04-26T11:47:40;2.13;;;1.45;;
50350;SDS011;36250;48.740;22.174;2023-04-26T11:50:07;4.03;;;2.08;;
50350;SDS011;36250;48.740;22.174;2023-04-26T11:52:34;4.03;;;1.88;;
50350;SDS011;36250;48.740;22.174;2023-04-26T11:55:02;8.40;;;1.90;;
50350;SDS011;36250;48.740;22.174;2023-04-26T11:57:31;2.75;;;1.40;;
50350;SDS011;36250;48.740;22.174;2023-04-26T12:00:11;2.55;;;1.42;;
50350;SDS011;36250;48.740;22.174;2023-04-26T12:02:47;4.10;;;1.55;;
50350;SDS011;36250;48.740;22.174;2023-04-26T12:05:23;4.22;;;1.75;;
50350;SDS011;36250;48.740;22.174;2023-04-26T12:07:56;8.35;;;1.58;;
50350;SDS011;36250;48.740;22.174;2023-04-26T12:10:34;3.08;;;1.67;;
50350;SDS011;36250;48.740;22.174;2023-04-26T12:13:00;1.10;;;0.95;;
50350;SDS011;36250;48.740;22.174;2023-04-26T12:15:30;2.03;;;1.35;;
50350;SDS011;36250;48.740;22.174;2023-04-26T12:18:02;3.97;;;1.50;;
50350;SDS011;36250;48.740;22.174;2023-04-26T12:20:34;8.25;;;1.52;;
50350;SDS011;36250;48.740;22.174;2023-04-26T12:25:30;5.53;;;1.70;;
50350;SDS011;36250;48.740;22.174;2023-04-26T12:27:57;2.33;;;1.08;;
50350;SDS011;36250;48.740;22.174;2023-04-26T12:30:23;5.90;;;1.55;;
50350;SDS011;36250;48.740;22.174;2023-04-26T12:32:49;6.03;;;1.77;;
50350;SDS011;36250;48.740;22.174;2023-04-26T12:35:15;1.83;;;1.23;;
50350;SDS011;36250;48.740;22.174;2023-04-26T12:37:40;6.05;;;1.60;;
50350;SDS011;36250;48.740;22.174;2023-04-26T12:40:06;6.43;;;2.63;;
50350;SDS011;36250;48.740;22.174;2023-04-26T12:42:33;6.07;;;2.42;;
50350;SDS011;36250;48.740;22.174;2023-04-26T12:44:58;7.20;;;2.78;;
50350;SDS011;36250;48.740;22.174;2023-04-26T12:47:23;4.13;;;1.50;;
50350;SDS011;36250;48.740;22.174;2023-04-26T12:49:49;3.15;;;1.30;;
50350;SDS011;36250;48.740;22.174;2023-04-26T12:52:14;2.47;;;1.27;;
50350;SDS011;36250;48.740;22.174;2023-04-26T12:54:39;3.08;;;1.17;;
50350;SDS011;36250;48.740;22.174;2023-04-26T12:57:05;3.70;;;1.00;;
50350;SDS011;36250;48.740;22.174;2023-04-26T12:59:30;3.55;;;1.45;;
50350;SDS011;36250;48.740;22.174;2023-04-26T13:01:55;6.35;;;2.40;;
50350;SDS011;36250;48.740;22.174;2023-04-26T13:04:21;7.55;;;2.08;;
50350;SDS011;36250;48.740;22.174;2023-04-26T13:06:46;5.00;;;1.77;;
50350;SDS011;36250;48.740;22.174;2023-04-26T13:09:11;5.28;;;1.67;;
50350;SDS011;36250;48.740;22.174;2023-04-26T13:11:37;3.85;;;1.20;;
50350;SDS011;36250;48.740;22.174;2023-04-26T13:14:03;5.32;;;1.85;;
50350;SDS011;36250;48.740;22.174;2023-04-26T13:16:31;8.38;;;2.42;;
50350;SDS011;36250;48.740;22.174;2023-04-26T13:18:57;3.80;;;1.77;;
50350;SDS011;36250;48.740;22.174;2023-04-26T13:21:22;1.83;;;1.00;;
50350;SDS011;36250;48.740;22.174;2023-04-26T13:23:47;8.88;;;1.38;;
50350;SDS011;36250;48.740;22.174;2023-04-26T13:26:13;4.07;;;1.30;;
50350;SDS011;36250;48.740;22.174;2023-04-26T13:28:41;1.75;;;1.40;;
50350;SDS011;36250;48.740;22.174;2023-04-26T13:31:06;5.80;;;1.50;;
50350;SDS011;36250;48.740;22.174;2023-04-26T13:33:32;3.92;;;1.25;;
50350;SDS011;36250;48.740;22.174;2023-04-26T13:35:57;2.72;;;1.13;;
50350;SDS011;36250;48.740;22.174;2023-04-26T13:38:23;4.45;;;1.33;;
50350;SDS011;36250;48.740;22.174;2023-04-26T13:40:49;3.72;;;1.30;;
50350;SDS011;36250;48.740;22.174;2023-04-26T13:43:14;8.82;;;1.27;;
50350;SDS011;36250;48.740;22.174;2023-04-26T13:45:40;2.85;;;1.20;;
50350;SDS011;36250;48.740;22.174;2023-04-26T13:48:05;8.90;;;2.33;;
50350;SDS011;36250;48.740;22.174;2023-04-26T13:50:30;7.65;;;3.03;;
50350;SDS011;36250;48.740;22.174;2023-04-26T13:52:56;3.50;;;1.40;;
50350;SDS011;36250;48.740;22.174;2023-04-26T13:55:21;4.00;;;1.35;;
50350;SDS011;36250;48.740;22.174;2023-04-26T13:57:47;5.68;;;1.88;;
50350;SDS011;36250;48.740;22.174;2023-04-26T14:00:12;4.78;;;2.45;;
50350;SDS011;36250;48.740;22.174;2023-04-26T14:02:38;4.72;;;2.50;;
50350;SDS011;36250;48.740;22.174;2023-04-26T14:05:03;2.78;;;1.65;;
50350;SDS011;36250;48.740;22.174;2023-04-26T14:07:29;6.82;;;1.38;;
50350;SDS011;36250;48.740;22.174;2023-04-26T14:09:55;2.90;;;1.38;;
50350;SDS011;36250;48.740;22.174;2023-04-26T14:12:20;3.00;;;1.25;;
50350;SDS011;36250;48.740;22.174;2023-04-26T14:14:45;2.83;;;1.38;;
50350;SDS011;36250;48.740;22.174;2023-04-26T14:17:11;5.75;;;1.27;;
50350;SDS011;36250;48.740;22.174;2023-04-26T14:19:37;4.75;;;1.35;;
50350;SDS011;36250;48.740;22.174;2023-04-26T14:22:02;4.57;;;1.27;;
50350;SDS011;36250;48.740;22.174;2023-04-26T14:24:28;2.92;;;1.10;;
50350;SDS011;36250;48.740;22.174;2023-04-26T14:26:53;4.65;;;1.58;;
50350;SDS011;36250;48.740;22.174;2023-04-26T14:29:19;6.60;;;3.03;;
50350;SDS011;36250;48.740;22.174;2023-04-26T14:31:44;10.18;;;4.03;;
50350;SDS011;36250;48.740;22.174;2023-04-26T14:34:10;8.73;;;4.32;;
50350;SDS011;36250;48.740;22.174;2023-04-26T14:36:35;4.15;;;2.28;;
50350;SDS011;36250;48.740;22.174;2023-04-26T14:39:00;8.93;;;1.45;;
50350;SDS011;36250;48.740;22.174;2023-04-26T14:41:26;8.07;;;2.42;;